Time;durP1;ratioP1;P1;durP2;ratioP2;P2;SDS_P1;SDS_P2;PMS_P1;PMS_P2;Temp;Humidity;BMP_temperature;BMP_pressure;BME280_temperature;BME280_humidity;BME280_pressure;Samples;Min_cycle;Max_cycle;Signal;HPM_P1;HPM_P2
2023/08/14 00:01:07;;;;;;;8.85;3.03;;;18.00;99.90;;;18.89;66.26;100600.59;4992546;28;20419;-80
2023/08/14 00:03:34;;;;;;;7.95;3.28;;;18.00;99.90;;;18.89;66.30;100587.06;4993842;28;20074;-80
2023/08/14 00:06:01;;;;;;;5.93;2.92;;;18.00;99.90;;;18.87;66.49;100594.59;5008618;28;20050;-80
2023/08/14 00:08:28;;;;;;;8.93;3.58;;;18.00;99.90;;;18.88;66.83;100593.53;4991167;28;20125;-80
2023/08/14 00:10:56;;;;;;;9.70;3.58;;;18.00;99.90;;;18.89;66.83;100586.25;4984287;28;20071;-80
2023/08/14 00:13:24;;;;;;;9.55;3.55;;;18.00;99.90;;;18.87;67.15;100586.50;4990932;28;20121;-80
2023/08/14 00:15:53;;;;;;;9.18;3.13;;;18.00;99.90;;;18.88;66.80;100587.31;4989955;28;20685;-80
2023/08/14 00:18:20;;;;;;;7.93;3.72;;;18.00;99.90;;;18.87;67.00;100588.41;4984820;28;20045;-80
2023/08/14 00:20:47;;;;;;;10.63;3.60;;;18.00;99.90;;;18.85;67.08;100588.66;4990170;28;20034;-80
2023/08/14 00:23:15;;;;;;;7.95;3.30;;;18.00;99.90;;;18.84;66.97;100588.91;4991597;28;20446;-80
2023/08/14 00:25:41;;;;;;;8.32;3.40;;;18.00;99.90;;;18.82;66.96;100591.06;4990073;28;20031;-80
2023/08/14 00:28:08;;;;;;;9.25;3.60;;;17.90;99.90;;;18.80;66.97;100585.94;4993755;28;20046;-80
2023/08/14 00:30:35;;;;;;;6.60;3.13;;;17.90;99.90;;;18.78;67.21;100588.06;4987283;28;20043;-80
2023/08/14 00:33:04;;;;;;;10.23;3.60;;;17.90;99.90;;;18.75;67.17;100588.63;4989621;28;20502;-80
2023/08/14 00:35:32;;;;;;;9.85;3.60;;;17.90;99.90;;;18.74;67.01;100587.00;4988777;28;20109;-80
2023/08/14 00:37:59;;;;;;;10.45;3.47;;;17.80;99.90;;;18.72;67.35;100581.03;4990078;28;20137;-80
2023/08/14 00:40:26;;;;;;;12.68;3.47;;;17.90;99.90;;;18.72;66.93;100581.03;4983778;28;20042;-80
2023/08/14 00:42:53;;;;;;;6.97;3.40;;;17.90;99.90;;;18.71;67.55;100593.72;4984851;28;20060;-80
2023/08/14 00:45:20;;;;;;;7.57;3.47;;;17.90;99.90;;;18.71;67.56;100590.22;4994107;28;20050;-80
2023/08/14 00:47:49;;;;;;;8.18;3.30;;;17.90;99.90;;;18.72;67.70;100583.72;4991778;28;20066;-80
2023/08/14 00:50:19;;;;;;;6.63;3.30;;;17.90;99.90;;;18.68;67.63;100580.72;4990632;28;20092;-80
2023/08/14 00:52:49;;;;;;;7.32;3.55;;;17.90;99.90;;;18.70;67.67;100585.88;4993421;28;20038;-80
2023/08/14 00:55:22;;;;;;;6.68;3.08;;;17.90;99.90;;;18.68;67.68;100585.28;4985182;28;20121;-80
2023/08/14 00:57:50;;;;;;;7.43;3.80;;;17.80;99.90;;;18.66;67.68;100587.47;4985317;28;20526;-80
2023/08/14 01:00:18;;;;;;;11.70;3.78;;;17.80;99.90;;;18.67;67.47;100586.38;4998492;28;20042;-81
2023/08/14 01:02:48;;;;;;;7.65;3.15;;;17.90;99.90;;;18.68;67.61;100582.59;4989370;28;20471;-80
2023/08/14 01:05:17;;;;;;;14.70;3.85;;;17.90;99.90;;;18.68;67.67;100582.59;4983518;28;20130;-81
2023/08/14 01:07:44;;;;;;;11.07;4.22;;;17.90;99.90;;;18.67;67.67;100586.38;4984948;28;20048;-81
2023/08/14 01:10:12;;;;;;;8.27;3.63;;;17.80;99.90;;;18.65;67.97;100581.25;4985843;28;20062;-80
2023/08/14 01:12:48;;;;;;;7.22;3.35;;;17.80;99.90;;;18.64;67.91;100579.63;4983864;28;20124;-80
2023/08/14 01:15:22;;;;;;;8.82;3.58;;;17.80;99.90;;;18.62;68.14;100579.06;4985489;28;20042;-80
2023/08/14 01:17:54;;;;;;;8.98;3.55;;;17.80;99.90;;;18.63;68.21;100575.28;4992783;28;20056;-80
2023/08/14 01:20:27;;;;;;;10.57;3.92;;;17.80;99.90;;;18.62;68.30;100570.94;4992049;28;20069;-80
2023/08/14 01:23:06;;;;;;;7.45;3.35;;;17.80;99.90;;;18.60;68.33;100575.00;4987503;28;20097;-80
2023/08/14 01:25:38;;;;;;;8.38;3.10;;;17.80;99.90;;;18.57;68.39;100575.50;4985333;28;20089;-80
2023/08/14 01:28:09;;;;;;;11.00;3.30;;;17.80;99.90;;;18.57;68.48;100572.81;4990369;28;20066;-80
2023/08/14 01:30:36;;;;;;;9.73;3.05;;;17.80;99.90;;;18.57;68.43;100570.09;4990086;28;20038;-80
2023/08/14 01:33:04;;;;;;;6.72;3.17;;;17.80;99.90;;;18.59;68.21;100565.25;4990337;28;20546;-80
2023/08/14 01:35:43;;;;;;;11.07;3.28;;;17.80;99.90;;;18.57;68.19;100562.00;4994516;28;20093;-80
2023/08/14 01:38:21;;;;;;;8.40;3.60;;;17.80;99.90;;;18.55;68.26;100572.28;4991231;28;20062;-80
2023/08/14 01:41:00;;;;;;;9.77;3.10;;;17.70;99.90;;;18.51;68.33;100561.16;4988582;28;20082;-80
2023/08/14 01:43:30;;;;;;;9.00;3.30;;;17.70;99.90;;;18.53;68.51;100565.22;4986255;28;20046;-80
2023/08/14 01:45:58;;;;;;;7.05;3.25;;;17.70;99.90;;;18.51;68.56;100553.88;4990532;28;20458;-80
2023/08/14 01:48:27;;;;;;;8.32;2.90;;;17.70;99.90;;;18.48;68.70;100554.38;4989810;28;20073;-80
2023/08/14 01:50:56;;;;;;;8.40;3.20;;;17.70;99.90;;;18.48;68.56;100554.38;4981916;28;20558;-80
2023/08/14 01:53:24;;;;;;;10.55;3.25;;;17.70;99.90;;;18.47;68.53;100551.97;4990342;28;20575;-80
2023/08/14 01:55:53;;;;;;;6.35;3.00;;;17.70;99.90;;;18.45;68.73;100546.81;4990142;28;20062;-81
2023/08/14 01:58:20;;;;;;;8.25;3.10;;;17.70;99.90;;;18.46;68.70;100550.34;4990291;28;20144;-80
2023/08/14 02:00:47;;;;;;;9.00;3.20;;;17.70;99.90;;;18.43;68.47;100543.56;4987407;28;20074;-81
2023/08/14 02:03:14;;;;;;;6.47;2.70;;;17.70;99.90;;;18.42;68.60;100531.13;4983388;28;20137;-81
2023/08/14 02:05:42;;;;;;;7.75;3.22;;;17.60;99.90;;;18.40;68.49;100538.69;4992820;28;20064;-81
2023/08/14 02:08:09;;;;;;;8.38;3.13;;;17.60;99.90;;;18.38;68.57;100535.44;4988392;28;20133;-81
2023/08/14 02:10:37;;;;;;;7.57;3.40;;;17.50;99.90;;;18.36;68.34;100526.78;4989684;28;20455;-80
2023/08/14 02:13:07;;;;;;;6.75;3.10;;;17.50;99.90;;;18.34;68.40;100522.72;4987706;28;20045;-80
2023/08/14 02:15:34;;;;;;;7.65;2.80;;;17.50;99.90;;;18.32;68.22;100520.28;4990413;28;20070;-80
2023/08/14 02:18:02;;;;;;;8.82;3.20;;;17.50;99.90;;;18.32;68.34;100517.56;4992143;28;20529;-80
2023/08/14 02:20:30;;;;;;;11.05;3.03;;;17.50;99.90;;;18.32;67.97;100514.88;4988020;28;20517;-80
2023/08/14 02:22:58;;;;;;;8.77;2.80;;;17.50;99.90;;;18.31;68.13;100515.16;4989023;28;20038;-81
2023/08/14 02:25:26;;;;;;;5.32;3.00;;;17.50;99.90;;;18.29;67.84;100504.59;4988869;28;20049;-81
2023/08/14 02:27:53;;;;;;;10.63;2.55;;;17.40;99.90;;;18.27;67.95;100510.25;4994961;28;20088;-80
2023/08/14 02:30:21;;;;;;;10.43;3.38;;;17.40;99.90;;;18.26;67.80;100507.81;4993715;28;20050;-80
2023/08/14 02:32:48;;;;;;;10.13;3.47;;;17.40;99.90;;;18.27;68.12;100510.25;4991746;28;20050;-81
2023/08/14 02:35:16;;;;;;;7.45;2.85;;;17.40;99.90;;;18.23;67.64;100498.34;4992532;28;20035;-80
2023/08/14 02:37:43;;;;;;;9.85;3.25;;;17.40;99.90;;;18.21;67.85;100503.22;4995891;28;20487;-80
2023/08/14 02:40:11;;;;;;;7.13;2.97;;;17.40;99.90;;;18.19;67.51;100499.13;5008462;28;20419;-80
2023/08/14 02:42:39;;;;;;;8.82;3.20;;;17.30;99.90;;;18.15;67.95;100492.63;4992064;28;20133;-80
2023/08/14 02:45:08;;;;;;;5.53;2.75;;;17.30;99.90;;;18.14;67.82;100496.41;4995730;28;20070;-80
2023/08/14 02:47:36;;;;;;;7.80;2.88;;;17.30;99.90;;;18.12;67.74;100498.56;4996852;28;20513;-80
2023/08/14 02:50:04;;;;;;;7.88;2.92;;;17.30;99.90;;;18.11;67.75;100500.44;4993593;28;20047;-80
2023/08/14 02:52:32;;;;;;;7.30;3.10;;;17.30;99.90;;;18.12;67.68;100503.97;4994543;28;20490;-80
2023/08/14 02:54:59;;;;;;;9.48;3.25;;;17.30;99.90;;;18.12;67.60;100495.84;5010574;28;20108;-80
2023/08/14 02:57:26;;;;;;;6.72;3.05;;;17.30;99.90;;;18.09;67.66;100494.47;4994581;28;20457;-80
2023/08/14 02:59:54;;;;;;;9.65;2.75;;;17.20;99.90;;;18.08;67.42;100490.16;4987501;28;20049;-80
2023/08/14 03:02:21;;;;;;;7.88;3.05;;;17.20;99.90;;;18.06;67.73;100484.22;4990919;28;20070;-80
2023/08/14 03:04:51;;;;;;;7.15;2.75;;;17.20;99.90;;;18.06;67.60;100488.81;4995385;28;20060;-80
2023/08/14 03:07:18;;;;;;;8.52;2.90;;;17.20;99.90;;;18.02;67.20;100488.50;4978239;28;20050;-80
2023/08/14 03:09:45;;;;;;;8.52;2.78;;;17.20;99.90;;;18.00;67.51;100488.75;4993568;28;20057;-80
2023/08/14 03:12:13;;;;;;;6.85;3.20;;;17.10;99.90;;;18.00;67.46;100486.06;4994367;28;20046;-80
2023/08/14 03:14:40;;;;;;;5.78;2.67;;;17.10;99.90;;;17.99;67.23;100489.03;4986073;28;20042;-80
2023/08/14 03:17:07;;;;;;;8.68;3.03;;;17.10;99.90;;;17.97;67.46;100497.38;4987372;28;20086;-80
2023/08/14 03:19:34;;;;;;;12.68;3.33;;;17.10;99.90;;;17.95;67.23;100487.91;4989362;28;20041;-80
2023/08/14 03:22:03;;;;;;;9.55;2.53;;;17.10;99.90;;;17.93;67.27;100490.88;4993118;28;20081;-80
2023/08/14 03:24:30;;;;;;;7.53;2.88;;;17.10;99.90;;;17.91;67.08;100484.94;4991677;28;20097;-80
2023/08/14 03:26:58;;;;;;;9.75;3.00;;;17.10;99.90;;;17.91;67.19;100492.19;4988216;28;20138;-80
2023/08/14 03:29:25;;;;;;;6.07;2.40;;;17.10;99.90;;;17.89;67.53;100495.16;4989378;28;20046;-82
2023/08/14 03:31:52;;;;;;;4.70;2.47;;;17.00;99.90;;;17.88;67.17;100498.94;4988048;28;20054;-83
2023/08/14 03:34:19;;;;;;;7.30;2.70;;;17.00;99.90;;;17.88;67.30;100495.44;4994505;28;20065;-83
2023/08/14 03:36:47;;;;;;;9.07;2.90;;;17.00;99.90;;;17.87;67.39;100497.31;4993888;28;20031;-80
2023/08/14 03:39:17;;;;;;;5.60;2.47;;;17.00;99.90;;;17.84;67.43;100492.44;4985961;28;20062;-80
2023/08/14 03:41:45;;;;;;;9.23;3.20;;;17.00;99.90;;;17.83;67.24;100496.19;4993470;28;20042;-80
2023/08/14 03:44:12;;;;;;;7.15;2.80;;;17.00;99.90;;;17.82;67.29;100491.88;4984975;28;20042;-80
2023/08/14 03:46:39;;;;;;;6.22;2.83;;;17.00;99.90;;;17.82;67.61;100497.28;4992862;28;20612;-80
2023/08/14 03:49:06;;;;;;;8.27;2.90;;;17.00;99.90;;;17.82;67.32;100496.47;4992086;28;20093;-80
2023/08/14 03:51:34;;;;;;;6.90;2.83;;;17.00;99.90;;;17.80;67.45;100487.81;4991651;28;20125;-80
2023/08/14 03:54:01;;;;;;;8.07;2.90;;;16.90;99.90;;;17.77;67.57;100486.44;4993106;28;20549;-80
2023/08/14 03:56:30;;;;;;;8.07;2.63;;;16.90;99.90;;;17.74;67.28;100493.16;4982208;28;20456;-80
2023/08/14 03:58:57;;;;;;;6.45;3.03;;;16.90;99.90;;;17.74;67.37;100492.34;4991115;28;20108;-80
2023/08/14 04:01:25;;;;;;;8.77;2.83;;;16.90;99.90;;;17.73;67.20;100496.13;4992960;28;20513;-80
2023/08/14 04:03:52;;;;;;;8.50;2.80;;;16.90;99.90;;;17.69;67.24;100484.19;4985085;28;20051;-80
2023/08/14 04:06:20;;;;;;;7.30;2.95;;;16.90;99.90;;;17.71;67.55;100495.53;4982924;28;20137;-81
2023/08/14 04:08:47;;;;;;;7.93;2.75;;;16.90;99.90;;;17.68;67.57;100498.75;4988033;28;20046;-81
2023/08/14 04:11:14;;;;;;;9.27;2.85;;;16.90;99.90;;;17.67;67.55;100492.53;4993964;28;20036;-81
2023/08/14 04:13:43;;;;;;;6.93;2.75;;;16.80;99.90;;;17.67;67.34;100497.13;4991712;28;20043;-81
2023/08/14 04:16:10;;;;;;;8.35;3.03;;;16.80;99.90;;;17.66;67.44;100490.91;5001299;28;20050;-81
2023/08/14 04:18:38;;;;;;;7.63;2.95;;;16.80;99.90;;;17.65;67.49;100493.84;4992585;28;20089;-81
2023/08/14 04:21:05;;;;;;;7.97;3.10;;;16.80;99.90;;;17.62;67.26;100489.81;4988934;28;20042;-81
2023/08/14 04:23:32;;;;;;;6.90;2.72;;;16.80;99.90;;;17.59;67.59;100484.09;5009871;28;20039;-81
2023/08/14 04:25:59;;;;;;;9.55;3.22;;;16.80;99.90;;;17.61;67.54;100476.56;4986033;28;20070;-81
2023/08/14 04:28:28;;;;;;;5.47;2.70;;;16.80;99.90;;;17.57;67.66;100470.88;5000895;28;20423;-81
2023/08/14 04:30:56;;;;;;;11.10;2.88;;;16.80;99.90;;;17.57;67.67;100475.44;4991796;28;20136;-80
2023/08/14 04:33:24;;;;;;;4.97;2.80;;;16.80;99.90;;;17.58;67.72;100467.13;4986193;28;20042;-80
2023/08/14 04:35:51;;;;;;;6.65;2.72;;;16.80;99.90;;;17.59;67.71;100481.41;4991082;28;20038;-80
2023/08/14 04:38:20;;;;;;;6.82;2.88;;;16.70;99.90;;;17.59;67.78;100476.81;4993114;28;20049;-80
2023/08/14 04:40:50;;;;;;;9.90;2.72;;;16.80;99.90;;;17.56;67.89;100473.81;4988495;28;20128;-80
2023/08/14 04:43:18;;;;;;;5.97;2.70;;;16.80;99.90;;;17.55;68.08;100477.59;5009975;28;20125;-80
2023/08/14 04:45:46;;;;;;;6.50;2.90;;;16.70;99.90;;;17.55;68.27;100485.69;4993080;28;20071;-80
2023/08/14 04:48:14;;;;;;;7.65;2.75;;;16.80;99.90;;;17.55;68.17;100485.69;4974016;28;20502;-80
2023/08/14 04:50:42;;;;;;;8.48;2.88;;;16.80;99.90;;;17.54;68.27;100482.19;4985953;28;20050;-80
2023/08/14 04:53:10;;;;;;;6.65;3.08;;;16.80;99.90;;;17.54;68.58;100478.66;4990598;28;20054;-81
2023/08/14 04:55:40;;;;;;;10.80;3.13;;;16.80;99.90;;;17.55;68.46;100478.41;4988823;28;20042;-81
2023/08/14 04:58:08;;;;;;;5.53;2.90;;;16.80;99.90;;;17.58;68.64;100467.13;5007018;28;20507;-81
2023/08/14 05:00:37;;;;;;;6.35;2.97;;;16.80;99.90;;;17.63;69.00;100469.03;4976749;28;20057;-80
2023/08/14 05:03:06;;;;;;;8.10;2.70;;;16.90;99.90;;;17.68;68.82;100466.38;4982267;28;20125;-80
2023/08/14 05:05:36;;;;;;;6.85;2.75;;;16.90;99.90;;;17.71;68.46;100466.69;4985812;28;20135;-80
2023/08/14 05:08:05;;;;;;;7.50;2.78;;;17.00;99.90;;;17.76;69.04;100455.13;4989789;28;20043;-80
2023/08/14 05:10:36;;;;;;;9.75;2.95;;;17.00;99.90;;;17.84;68.84;100461.94;4958274;28;20050;-80
2023/08/14 05:13:03;;;;;;;;;;;17.10;99.90;;;17.88;69.05;100471.13;4986739;28;20046;-80
2023/08/14 05:15:31;;;;;;;8.02;2.97;;;17.20;99.90;;;17.90;69.24;100480.59;4986145;23;19926;-85
2023/08/14 05:17:58;;;;;;;11.00;3.47;;;17.20;99.90;;;17.98;68.97;100482.81;4929820;29;20492;-84
2023/08/14 05:20:25;;;;;;;10.88;3.90;;;17.30;99.90;;;18.05;68.78;100482.56;4927715;29;20071;-84
2023/08/14 05:22:54;;;;;;;9.75;3.38;;;17.40;99.90;;;18.10;68.78;100474.50;4948990;29;20040;-84
2023/08/14 05:25:21;;;;;;;8.10;3.20;;;17.50;99.90;;;18.15;69.06;100469.13;4936676;29;20075;-84
2023/08/14 05:27:48;;;;;;;9.35;3.80;;;17.50;99.90;;;18.18;69.11;100475.91;4928488;29;20046;-86
2023/08/14 05:30:16;;;;;;;7.70;3.17;;;17.60;99.90;;;18.19;69.65;100461.34;4945389;28;20081;-82
2023/08/14 05:32:46;;;;;;;9.68;3.83;;;17.60;99.90;;;18.22;69.68;100460.81;4930502;29;20067;-82
2023/08/14 05:35:44;;;;;;;5.23;3.33;;;17.70;99.90;;;18.26;69.72;100459.22;4930688;29;20433;-82
2023/08/14 05:38:13;;;;;;;14.70;3.33;;;17.70;99.90;;;18.27;69.64;100460.84;4929290;29;20043;-82
2023/08/14 05:40:40;;;;;;;11.65;3.55;;;17.80;99.90;;;18.26;70.16;100470.84;4934868;29;20039;-83
2023/08/14 05:43:09;;;;;;;11.27;3.58;;;17.80;99.90;;;18.25;70.17;100471.91;4931727;29;20052;-85
2023/08/14 05:45:38;;;;;;;9.68;3.78;;;17.80;99.90;;;18.30;69.89;100473.84;4933066;28;20054;-85
2023/08/14 05:48:07;;;;;;;12.07;3.75;;;17.90;99.90;;;18.36;69.69;100483.56;4940814;29;20044;-85
2023/08/14 05:50:35;;;;;;;9.32;4.05;;;17.90;99.90;;;18.42;69.89;100471.72;4931995;29;20052;-85
2023/08/14 05:53:05;;;;;;;13.55;3.72;;;18.00;99.90;;;18.50;69.89;100462.31;4929610;29;20052;-85
2023/08/14 05:55:35;;;;;;;12.93;3.70;;;18.10;99.90;;;18.60;70.04;100450.75;4933979;29;20039;-85
2023/08/14 05:58:04;;;;;;;7.55;3.47;;;18.20;99.90;;;18.63;70.28;100466.41;4943807;28;20052;-86
2023/08/14 06:00:32;;;;;;;10.77;4.13;;;18.30;99.90;;;18.66;70.83;100465.88;4936899;29;20119;-86
2023/08/14 06:03:00;;;;;;;15.48;4.32;;;18.40;99.90;;;18.70;70.96;100473.22;4916271;29;20079;-86
2023/08/14 06:05:27;;;;;;;13.32;3.67;;;18.40;99.90;;;18.69;70.55;100458.09;4930911;29;20056;-86
2023/08/14 06:07:56;;;;;;;10.88;3.70;;;18.40;99.90;;;18.71;70.87;100461.34;4931540;29;20044;-86
2023/08/14 06:10:24;;;;;;;13.13;4.32;;;18.40;99.90;;;18.71;70.69;100461.34;4929902;29;20120;-86
2023/08/14 06:12:53;;;;;;;12.50;4.07;;;18.50;99.90;;;18.71;71.20;100455.13;4929294;29;20078;-86
2023/08/14 06:15:21;;;;;;;15.00;4.53;;;18.50;99.90;;;18.75;71.72;100446.22;4931689;29;20090;-86
2023/08/14 06:17:49;;;;;;;10.85;4.10;;;18.50;99.90;;;18.81;71.67;100452.44;4937931;28;20467;-86
2023/08/14 06:20:16;;;;;;;12.05;4.22;;;18.60;99.90;;;18.86;72.64;100459.75;4933872;29;20118;-86
2023/08/14 06:22:46;;;;;;;11.88;3.53;;;18.60;99.90;;;18.89;72.90;100468.16;4933035;29;20040;-85
2023/08/14 06:25:14;;;;;;;9.07;3.90;;;18.70;99.90;;;18.89;73.08;100462.75;4930599;29;20526;-86
2023/08/14 06:27:42;;;;;;;14.38;4.43;;;18.70;99.90;;;18.96;72.95;100457.06;4929458;29;20040;-85
2023/08/14 06:30:12;;;;;;;11.90;4.10;;;18.70;99.90;;;19.04;72.84;100454.66;4920828;29;20067;-86
2023/08/14 06:32:40;;;;;;;14.68;4.00;;;18.80;99.90;;;19.04;72.71;100461.97;4936953;29;20123;-85
2023/08/14 06:35:07;;;;;;;11.93;4.10;;;18.80;99.90;;;19.08;73.04;100460.34;4939034;29;20079;-86
2023/08/14 06:37:35;;;;;;;13.93;4.15;;;18.90;99.90;;;19.11;73.87;100467.09;4941456;29;20120;-85
2023/08/14 06:40:03;;;;;;;11.68;3.83;;;18.90;99.90;;;19.10;73.00;100463.59;4924443;29;20099;-86
2023/08/14 06:42:30;;;;;;;11.82;4.38;;;18.90;99.90;;;19.15;74.09;100477.13;4929714;29;20040;-86
2023/08/14 06:44:58;;;;;;;11.38;3.65;;;18.90;99.90;;;19.20;73.21;100469.00;4933547;29;20424;-86
2023/08/14 06:47:26;;;;;;;9.02;3.60;;;19.00;99.90;;;19.24;73.19;100467.41;4933274;29;20568;-86
2023/08/14 06:49:54;;;;;;;9.40;3.85;;;19.10;99.90;;;19.31;73.84;100464.41;4934844;29;20047;-86
2023/08/14 06:52:21;;;;;;;9.98;4.20;;;19.10;99.90;;;19.35;73.58;100468.22;4933140;29;20547;-86
2023/08/14 06:54:48;;;;;;;10.73;4.05;;;19.30;99.90;;;19.41;72.73;100469.84;4932987;29;20047;-85
2023/08/14 06:57:16;;;;;;;12.52;3.80;;;19.30;99.90;;;19.45;72.17;100470.94;4934120;29;20099;-86
2023/08/14 06:59:43;;;;;;;16.00;4.65;;;19.40;99.90;;;19.47;72.05;100466.06;4948368;28;20664;-85
2023/08/14 07:02:11;;;;;;;11.32;4.10;;;19.40;99.90;;;19.53;71.79;100464.97;4933150;29;20593;-86
2023/08/14 07:04:40;;;;;;;9.85;3.83;;;19.50;99.90;;;19.61;72.02;100477.16;4934119;29;20126;-86
2023/08/14 07:07:07;;;;;;;13.85;4.20;;;19.60;99.90;;;19.65;71.90;100466.63;4933784;29;20142;-86
2023/08/14 07:09:34;;;;;;;11.60;3.83;;;19.60;99.90;;;19.73;73.36;100479.63;4933936;29;20086;-86
2023/08/14 07:12:02;;;;;;;10.40;4.05;;;19.70;99.90;;;19.78;75.01;100471.50;4934788;29;20044;-86
2023/08/14 07:14:31;;;;;;;10.85;4.22;;;19.80;99.90;;;19.78;73.93;100460.66;4937244;29;20466;-85
2023/08/14 07:16:58;;;;;;;10.98;3.80;;;19.90;99.90;;;19.82;72.94;100456.34;4935588;29;20123;-86
2023/08/14 07:19:25;;;;;;;9.77;4.03;;;19.90;99.90;;;19.87;72.01;100466.34;4937331;29;20054;-86
2023/08/14 07:21:54;;;;;;;10.88;3.75;;;19.90;99.90;;;19.88;71.80;100470.69;4935890;29;20135;-86
2023/08/14 07:24:21;;;;;;;13.52;4.32;;;19.90;99.90;;;19.89;71.70;100470.38;4953818;28;20139;-86
2023/08/14 07:26:48;;;;;;;10.60;3.90;;;19.90;99.90;;;19.87;72.02;100452.81;4952209;28;20063;-87
2023/08/14 07:29:15;;;;;;;13.52;4.03;;;19.90;99.90;;;19.80;71.51;100450.38;4937043;29;20503;-84
2023/08/14 07:31:43;;;;;;;14.25;3.83;;;19.90;99.90;;;19.80;71.08;100453.06;4932884;29;20067;-89
2023/08/14 07:34:10;;;;;;;10.70;3.60;;;19.80;99.90;;;19.76;70.32;100449.28;4926745;29;20079;-87
2023/08/14 07:36:38;;;;;;;12.98;4.00;;;19.80;99.90;;;19.74;69.51;100462.28;4935578;29;20050;-87
2023/08/14 07:39:07;;;;;;;12.00;3.95;;;19.70;99.90;;;19.73;69.41;100464.19;4954139;28;20072;-87
2023/08/14 07:41:34;;;;;;;13.68;3.90;;;19.70;99.90;;;19.74;70.62;100465.00;4935890;29;20048;-88
2023/08/14 07:44:02;;;;;;;13.43;4.10;;;19.70;99.90;;;19.77;71.37;100465.28;4936971;29;20082;-86
2023/08/14 07:46:29;;;;;;;12.63;3.55;;;19.70;99.90;;;19.82;70.98;100466.34;4930908;29;20047;-89
2023/08/14 07:48:56;;;;;;;10.35;4.35;;;19.80;99.90;;;19.87;70.48;100466.34;4931943;29;20146;-89
2023/08/14 07:51:24;;;;;;;13.02;4.00;;;19.90;99.90;;;19.96;71.34;100456.56;4936110;29;20052;-89
2023/08/14 07:53:52;;;;;;;9.40;4.15;;;20.00;99.90;;;20.00;70.97;100455.75;4936035;29;20147;-89
2023/08/14 07:56:21;;;;;;;10.80;3.80;;;20.00;99.90;;;20.05;70.04;100457.63;4936115;29;20052;-89
2023/08/14 07:58:48;;;;;;;12.05;3.90;;;20.10;99.90;;;20.14;70.22;100453.28;4935546;29;20056;-89
2023/08/14 08:01:16;;;;;;;12.43;4.72;;;20.20;99.90;;;20.30;72.47;100424.25;4935904;29;20044;-89
2023/08/14 08:03:44;;;;;;;12.70;4.07;;;20.40;99.90;;;20.40;70.06;100415.25;4935826;29;20107;-89
2023/08/14 08:06:12;;;;;;;11.93;3.97;;;20.50;99.90;;;20.47;69.18;100423.94;4935756;29;20634;-89
2023/08/14 08:08:39;;;;;;;8.23;3.55;;;20.60;99.90;;;20.51;68.92;100436.66;4936391;29;20046;-89
2023/08/14 08:11:06;;;;;;;8.35;3.88;;;20.70;99.90;;;20.59;69.88;100446.09;4935890;29;20418;-89
2023/08/14 08:13:35;;;;;;;12.85;4.05;;;20.70;99.90;;;20.64;68.89;100446.06;4937225;29;20115;-89
2023/08/14 08:16:02;;;;;;;9.05;3.80;;;20.80;99.90;;;20.72;69.69;100459.03;4936938;29;20071;-90
2023/08/14 08:18:30;;;;;;;12.80;4.13;;;20.90;99.90;;;20.67;68.17;100463.69;4967388;28;20047;-90
2023/08/14 08:20:57;;;;;;;9.77;3.58;;;20.80;99.90;;;20.58;67.88;100468.88;4942550;28;20072;-90
2023/08/14 08:23:24;;;;;;;8.75;3.47;;;20.70;99.90;;;20.54;69.31;100476.72;4922170;29;20042;-90
2023/08/14 08:25:52;;;;;;;13.82;3.60;;;20.60;99.90;;;20.51;67.98;100480.00;4935508;29;20078;-90
2023/08/14 08:28:19;;;;;;;8.68;3.50;;;20.60;99.90;;;20.61;67.50;100472.94;4934703;29;20801;-90
2023/08/14 08:30:48;;;;;;;12.13;3.67;;;20.70;99.90;;;20.80;67.45;100463.91;4951078;29;20055;-90
2023/08/14 08:33:15;;;;;;;8.98;3.33;;;20.90;99.90;;;21.02;67.51;100454.53;4951126;28;20095;-90
2023/08/14 08:35:42;;;;;;;10.93;3.55;;;21.20;99.90;;;21.12;65.34;100445.53;4935465;29;20151;-90
2023/08/14 08:38:10;;;;;;;8.95;3.50;;;21.30;99.70;;;21.21;65.25;100443.84;4934856;29;20106;-90
2023/08/14 08:40:39;;;;;;;13.45;3.30;;;21.50;99.90;;;21.34;66.97;100449.47;4966917;28;20044;-90
2023/08/14 08:43:07;;;;;;;11.40;3.38;;;21.60;99.90;;;21.45;65.58;100458.31;4935478;29;20142;-89
2023/08/14 08:45:37;;;;;;;9.02;3.58;;;21.70;99.70;;;21.45;63.31;100466.47;4935288;29;20052;-90
2023/08/14 08:48:08;;;;;;;8.35;3.45;;;21.70;97.60;;;21.42;61.88;100463.50;4950351;29;20055;-90
2023/08/14 08:50:35;;;;;;;16.08;3.50;;;21.70;95.90;;;21.42;62.84;100467.03;4950826;28;20505;-90
2023/08/14 08:53:04;;;;;;;11.90;3.63;;;21.60;96.80;;;21.45;64.62;100460.25;4947890;29;20044;-90
2023/08/14 08:55:31;;;;;;;13.18;3.70;;;21.70;98.80;;;21.58;66.71;100460.41;4948203;29;20072;-90
2023/08/14 08:58:01;;;;;;;10.02;3.10;;;21.90;99.90;;;21.69;64.32;100460.31;4931268;29;20717;-87
2023/08/14 09:00:28;;;;;;;12.43;3.15;;;22.00;98.50;;;21.69;62.84;100460.31;4934766;29;20106;-90
2023/08/14 09:02:56;;;;;;;13.88;3.90;;;22.00;96.80;;;21.81;64.74;100455.28;4934601;29;20051;-88
2023/08/14 09:05:25;;;;;;;10.00;3.58;;;22.10;98.70;;;21.96;65.86;100459.75;4933798;29;20048;-88
2023/08/14 09:07:52;;;;;;;11.65;3.40;;;22.30;99.70;;;21.97;63.32;100453.25;4947671;28;20045;-88
2023/08/14 09:10:20;;;;;;;14.57;3.60;;;22.30;96.60;;;22.00;63.80;100458.91;4947229;28;20055;-88
2023/08/14 09:12:47;;;;;;;10.32;3.13;;;22.40;97.50;;;22.04;61.19;100462.66;4947509;29;20143;-88
2023/08/14 09:15:15;;;;;;;10.07;3.30;;;22.40;94.60;;;22.01;60.97;100452.41;4915435;29;20048;-87
2023/08/14 09:17:43;;;;;;;12.73;4.05;;;22.40;93.40;;;22.09;63.14;100459.09;4928817;28;20130;-88
2023/08/14 09:20:14;;;;;;;9.70;3.30;;;22.40;96.40;;;22.17;62.28;100465.84;4933992;29;20050;-87
2023/08/14 09:22:43;;;;;;;7.25;3.10;;;22.50;95.50;;;22.23;61.13;100459.25;4935950;29;20043;-85
2023/08/14 09:25:11;;;;;;;9.85;3.10;;;22.60;94.20;;;22.28;63.68;100461.91;4935934;29;20054;-86
2023/08/14 09:27:38;;;;;;;11.00;3.47;;;22.60;96.60;;;22.38;62.04;100458.25;4934986;29;20171;-84
2023/08/14 09:30:08;;;;;;;8.10;2.97;;;22.80;94.60;;;22.39;61.91;100457.94;4934171;29;20489;-85
2023/08/14 09:32:36;;;;;;;9.40;2.97;;;22.80;94.80;;;22.42;60.25;100462.81;4935077;29;20055;-87
2023/08/14 09:35:05;;;;;;;9.27;2.92;;;22.80;92.90;;;22.51;60.88;100465.72;4934952;29;20043;-85
2023/08/14 09:37:33;;;;;;;6.57;2.60;;;22.90;93.90;;;22.58;61.55;100458.00;4936512;29;20075;-86
2023/08/14 09:40:15;;;;;;;9.80;2.80;;;23.00;94.30;;;22.59;59.21;100449.56;4948017;28;20055;-85
2023/08/14 09:42:44;;;;;;;10.40;2.72;;;23.00;91.30;;;22.57;56.69;100449.03;4916037;29;20044;-87
2023/08/14 09:45:13;;;;;;;9.90;2.88;;;22.90;89.20;;;22.51;57.37;100438.53;4915003;29;20048;-87
2023/08/14 09:47:43;;;;;;;11.23;2.58;;;22.90;89.60;;;22.60;59.63;100432.16;4927951;29;20493;-86
2023/08/14 09:50:13;;;;;;;7.32;2.47;;;23.00;92.00;;;22.68;59.17;100427.97;4935408;29;20512;-88
2023/08/14 09:52:40;;;;;;;7.25;2.40;;;23.00;91.30;;;22.73;59.29;100436.03;4933882;29;20508;-86
2023/08/14 09:55:09;;;;;;;7.93;2.40;;;23.10;91.30;;;22.79;57.31;100428.63;4933823;29;20724;-87
2023/08/14 09:57:38;;;;;;;11.88;2.83;;;23.20;89.10;;;22.84;56.29;100415.78;4949513;28;20067;-87
2023/08/14 10:00:08;;;;;;;7.38;2.60;;;23.20;88.70;;;22.89;55.06;100409.50;4933059;29;20083;-88
2023/08/14 10:02:39;;;;;;;8.00;2.70;;;23.30;86.90;;;22.84;54.88;100396.75;4950077;28;20071;-88
2023/08/14 10:05:09;;;;;;;8.05;2.67;;;23.20;86.40;;;22.92;56.42;100400.72;4952116;29;20114;-89
2023/08/14 10:07:40;;;;;;;11.23;2.20;;;23.30;88.10;;;22.93;54.81;100396.88;4922347;29;20052;-89
2023/08/14 10:10:09;;;;;;;6.88;2.05;;;23.30;86.30;;;22.91;52.88;100392.88;4968971;28;20058;-89
2023/08/14 10:12:48;;;;;;;10.48;2.60;;;23.30;84.00;;;22.94;54.04;100392.28;4954298;28;20086;-89
2023/08/14 10:15:22;;;;;;;9.13;2.47;;;23.30;85.40;;;22.97;53.17;100391.69;4936005;29;20070;-89